Time;durP1;ratioP1;P1;durP2;ratioP2;P2;SDS_P1;SDS_P2;PMS_P1;PMS_P2;Temp;Humidity;BMP_temperature;BMP_pressure;BME280_temperature;BME280_humidity;BME280_pressure;Samples;Min_cycle;Max_cycle;Signal;HPM_P1;HPM_P2
2022/01/28 00:02:42;;;;;;;28.30;20.45;;;;;;;0.81;60.22;94972.53;5035300;28;20203;-74
2022/01/28 00:04:57;;;;;;;42.20;24.13;;;;;;;0.62;60.78;94972.44;5023610;28;20164;-74
2022/01/28 00:07:23;;;;;;;37.93;23.30;;;;;;;0.61;60.39;94975.94;5008710;28;20194;-74
2022/01/28 00:09:48;;;;;;;40.63;26.73;;;;;;;1.04;60.17;94980.13;5021868;28;20204;-74
2022/01/28 00:12:14;;;;;;;34.33;24.13;;;;;;;1.34;58.97;94980.13;5024198;28;20196;-74
2022/01/28 00:14:48;;;;;;;36.50;24.00;;;;;;;1.11;58.90;94974.34;5026386;28;20235;-74
2022/01/28 00:38:54;;;;;;;41.78;24.88;;;;;;;0.90;60.03;94961.50;5021289;28;20203;-74
2022/01/28 00:41:20;;;;;;;40.77;26.90;;;;;;;0.69;61.02;94964.06;5025674;28;20583;-74
2022/01/28 00:43:45;;;;;;;41.63;25.37;;;;;;;0.96;60.18;94944.69;5025250;28;20187;-74
2022/01/28 00:46:11;;;;;;;16.77;10.20;;;;;;;0.95;59.62;94951.63;5021736;28;20212;-75
2022/01/28 00:48:37;;;;;;;35.33;24.33;;;;;;;0.56;60.41;94948.81;5014844;28;20189;-74
2022/01/28 00:51:02;;;;;;;44.80;26.23;;;;;;;0.84;60.49;94962.00;5015268;28;20188;-74
2022/01/28 00:53:28;;;;;;;43.07;25.90;;;;;;;0.68;60.34;94951.31;5025251;28;20446;-74
2022/01/28 00:55:54;;;;;;;39.03;25.00;;;;;;;0.99;60.29;94947.03;5028097;28;20646;-74
2022/01/28 00:58:21;;;;;;;39.30;24.77;;;;;;;0.71;60.85;94951.06;5035630;28;20180;-74
2022/01/28 01:00:46;;;;;;;47.28;25.38;;;;;;;0.74;60.37;94940.50;5025858;28;20407;-75
2022/01/28 01:03:12;;;;;;;51.27;28.30;;;;;;;0.93;60.00;94944.94;5025588;28;20241;-74
2022/01/28 01:05:37;;;;;;;46.03;25.20;;;;;;;1.03;59.53;94937.28;5022258;28;20189;-74
2022/01/28 01:08:05;;;;;;;46.83;24.90;;;;;;;1.07;59.10;94946.41;5004513;28;20196;-75
2022/01/28 01:10:32;;;;;;;42.00;25.45;;;;;;;0.54;60.23;94924.13;5007091;28;20280;-74
2022/01/28 01:12:58;;;;;;;41.70;24.85;;;;;;;0.23;61.88;94929.22;5013897;28;20230;-74
2022/01/28 01:15:28;;;;;;;42.65;25.83;;;;;;;0.74;60.17;94922.47;5037999;28;20259;-74
2022/01/28 01:23:07;;;;;;;44.03;27.05;;;;;;;0.77;60.76;94915.31;5027982;28;20203;-74
2022/01/28 01:25:42;;;;;;;39.50;25.95;;;;;;;0.56;61.04;94906.81;5028803;28;20172;-75
2022/01/28 01:28:10;;;;;;;36.33;23.23;;;;;;;0.52;61.36;94895.94;5028648;28;20195;-74
2022/01/28 01:30:39;;;;;;;38.78;23.90;;;;;;;0.61;60.42;94896.94;5030010;28;20238;-74
2022/01/28 01:33:05;;;;;;;35.38;22.15;;;;;;;0.76;60.10;94892.28;5025062;28;20230;-74
2022/01/28 01:35:32;;;;;;;34.63;23.00;;;;;;;0.60;60.15;94894.50;5029540;28;20211;-74
2022/01/28 01:37:58;;;;;;;33.38;23.98;;;;;;;0.74;60.61;94895.00;5029162;28;20608;-74
2022/01/28 01:40:30;;;;;;;38.53;23.77;;;;;;;0.49;60.57;94893.59;5028508;28;20263;-74
2022/01/28 01:43:08;;;;;;;40.20;26.23;;;;;;;0.68;60.18;94895.47;5026278;28;20850;-74
2022/01/28 01:53:28;;;;;;;43.45;25.92;;;;;;;0.42;60.26;94868.50;5037525;28;20753;-74
2022/01/28 01:55:55;;;;;;;40.23;24.20;;;;;;;0.42;60.13;94871.91;4997900;28;20205;-74
2022/01/28 01:58:25;;;;;;;43.85;25.65;;;;;;;0.47;60.46;94874.91;5005012;28;20195;-73
2022/01/28 02:00:51;;;;;;;43.50;27.63;;;;;;;0.85;58.92;94873.47;5037883;28;20190;-74
2022/01/28 02:03:16;;;;;;;38.63;26.07;;;;;;;0.95;58.62;94871.75;5039016;28;20216;-74
2022/01/28 02:05:42;;;;;;;29.60;17.20;;;;;;;0.54;58.87;94873.47;5029393;28;20259;-74
2022/01/28 02:08:07;;;;;;;22.77;11.47;;;;;;;0.61;58.81;94873.78;5011342;28;20188;-74
2022/01/28 02:10:33;;;;;;;38.10;21.27;;;;;;;0.35;59.18;94874.16;5049617;28;20187;-74
2022/01/28 02:12:59;;;;;;;33.92;19.30;;;;;;;0.21;59.49;94868.50;5043394;28;20184;-74
2022/01/28 02:15:25;;;;;;;28.53;16.30;;;;;;;0.22;60.34;94863.25;5030417;28;20250;-74
2022/01/28 02:17:50;;;;;;;29.10;17.40;;;;;;;0.22;60.21;94852.13;5028903;28;20192;-73
2022/01/28 02:20:34;;;;;;;32.83;22.07;;;;;;;0.09;60.39;94853.13;5030143;28;20185;-74
2022/01/28 02:23:01;;;;;;;32.95;22.20;;;;;;;-0.11;61.18;94857.34;5029172;28;20678;-74
2022/01/28 02:25:29;;;;;;;35.53;22.45;;;;;;;0.17;60.77;94850.75;5027670;28;20185;-74
2022/01/28 02:27:59;;;;;;;36.90;23.48;;;;;;;-0.01;60.53;94842.78;5024563;28;20605;-74
2022/01/28 02:30:25;;;;;;;36.83;22.02;;;;;;;0.39;60.15;94841.28;5026702;28;20193;-74
2022/01/28 02:32:56;;;;;;;30.93;22.13;;;;;;;0.05;60.64;94841.47;5027269;28;20192;-75
2022/01/28 02:35:21;;;;;;;42.03;23.42;;;;;;;0.38;60.58;94834.50;5022894;28;20212;-74
2022/01/28 02:37:47;;;;;;;38.80;24.10;;;;;;;0.11;60.52;94840.16;5041801;28;20658;-74
2022/01/28 02:40:12;;;;;;;38.30;24.10;;;;;;;0.08;60.80;94851.50;5040389;28;20210;-73
2022/01/28 02:42:55;;;;;;;45.60;22.70;;;;;;;0.27;60.07;94845.69;5039484;28;20185;-73
2022/01/28 02:45:27;;;;;;;34.00;18.63;;;;;;;0.30;59.74;94855.69;5009664;28;20191;-72
2022/01/28 02:48:01;;;;;;;30.42;19.83;;;;;;;0.16;60.06;94843.97;5020352;28;20188;-74
2022/01/28 02:50:29;;;;;;;28.15;19.23;;;;;;;0.27;59.26;94855.16;5028518;28;20157;-74
2022/01/28 02:53:04;;;;;;;32.03;20.35;;;;;;;0.29;59.79;94854.09;5003604;28;20189;-74
2022/01/28 02:55:35;;;;;;;35.33;20.95;;;;;;;0.33;58.40;94834.06;5024317;28;20195;-74
2022/01/28 02:58:21;;;;;;;41.90;19.17;;;;;;;0.38;58.60;94831.94;5029605;28;20184;-74
2022/01/28 03:00:48;;;;;;;29.85;18.63;;;;;;;-0.05;59.90;94827.72;5027262;28;20176;-74
2022/01/28 03:03:23;;;;;;;28.40;17.23;;;;;;;0.09;59.21;94829.97;5030759;28;20222;-74
2022/01/28 03:05:49;;;;;;;28.88;18.60;;;;;;;0.08;59.45;94835.28;5047822;28;20163;-73
2022/01/28 03:08:16;;;;;;;29.35;18.83;;;;;;;-0.38;60.47;94831.25;5020244;28;20187;-73
2022/01/28 03:13:17;;;;;;;27.95;18.45;;;;;;;0.21;58.47;94817.88;5027818;28;20246;-75
2022/01/28 03:15:50;;;;;;;17.48;9.70;;;;;;;0.31;58.23;94810.22;5028359;28;20659;-73
2022/01/28 03:18:21;;;;;;;23.20;17.13;;;;;;;0.08;58.74;94805.22;5011306;28;20192;-74
2022/01/28 03:23:18;;;;;;;27.25;17.67;;;;;;;0.32;59.11;94802.38;5016780;28;20188;-73
2022/01/28 03:25:43;;;;;;;32.13;19.60;;;;;;;0.08;59.50;94810.34;5009107;28;20241;-73
2022/01/28 03:28:09;;;;;;;23.87;18.07;;;;;;;0.46;57.89;94798.63;5026979;28;20195;-73
2022/01/28 03:30:35;;;;;;;22.83;15.30;;;;;;;0.45;58.34;94801.34;5025638;28;20184;-73
2022/01/28 03:33:00;;;;;;;22.30;16.43;;;;;;;0.30;57.99;94811.13;5010350;28;20423;-73
2022/01/28 03:35:25;;;;;;;19.70;7.83;;;;;;;-0.09;59.51;94790.34;5028244;28;20214;-75
2022/01/28 03:37:58;;;;;;;22.10;13.40;;;;;;;-0.08;60.23;94784.25;5023242;28;20247;-73
2022/01/28 03:40:25;;;;;;;25.10;17.15;;;;;;;-0.38;60.93;94772.94;5021250;28;20241;-74
2022/01/28 03:42:50;;;;;;;24.17;15.48;;;;;;;-0.25;60.65;94785.63;5026846;28;20282;-73
2022/01/28 03:45:17;;;;;;;25.87;15.10;;;;;;;-0.16;60.28;94789.22;5026603;28;20172;-74
2022/01/28 03:47:42;;;;;;;24.08;15.38;;;;;;;0.12;60.59;94783.44;5024196;28;20200;-73
2022/01/28 03:50:08;;;;;;;24.80;15.63;;;;;;;0.04;59.81;94775.53;5028891;28;20958;-73
2022/01/28 03:52:33;;;;;;;23.90;16.37;;;;;;;0.03;59.69;94779.03;5026336;28;20196;-74
2022/01/28 03:54:59;;;;;;;22.90;15.80;;;;;;;-0.28;60.50;94773.84;5026541;28;20258;-74
2022/01/28 03:57:24;;;;;;;18.10;12.77;;;;;;;0.29;58.03;94769.16;5007960;28;20254;-73
2022/01/28 03:59:50;;;;;;;26.27;15.53;;;;;;;-0.28;60.14;94766.13;5027410;28;20577;-74
2022/01/28 04:02:20;;;;;;;19.77;14.60;;;;;;;-0.41;60.60;94762.91;5027816;28;20683;-73
2022/01/28 04:12:41;;;;;;;20.88;11.93;;;;;;;-0.30;60.23;94750.00;5012474;28;20249;-74
2022/01/28 04:17:46;;;;;;;24.92;14.02;;;;;;;-0.04;60.24;94765.03;5026144;28;20252;-74
2022/01/28 04:20:11;;;;;;;24.02;12.88;;;;;;;-0.03;59.88;94764.94;5007400;28;20176;-74
2022/01/28 04:22:37;;;;;;;21.17;13.50;;;;;;;0.11;59.92;94768.91;5025977;28;20203;-73
2022/01/28 04:25:02;;;;;;;20.30;14.50;;;;;;;0.16;59.45;94777.09;5029926;28;20187;-74
2022/01/28 04:27:28;;;;;;;22.40;15.33;;;;;;;0.04;59.47;94783.25;5007582;28;20247;-74
2022/01/28 04:29:53;;;;;;;25.90;14.87;;;;;;;0.11;59.07;94781.78;5008036;28;20431;-73
2022/01/28 04:32:20;;;;;;;18.20;13.50;;;;;;;0.44;58.70;94779.94;5043893;28;20288;-74
2022/01/28 04:34:47;;;;;;;17.95;11.82;;;;;;;0.58;57.77;94777.00;5038985;28;20227;-73
2022/01/28 04:37:55;;;;;;;21.80;12.23;;;;;;;0.42;57.90;94771.53;5028099;28;20202;-73
2022/01/28 04:48:27;;;;;;;23.85;11.98;;;;;;;0.55;58.11;94766.97;5009413;28;20634;-73
2022/01/28 04:59:06;;;;;;;25.27;16.25;;;;;;;0.07;58.67;94782.19;5025461;28;20187;-73
2022/01/28 05:07:21;;;;;;;30.73;18.08;;;;;;;0.19;57.95;94794.84;5004246;28;20263;-74
2022/01/28 05:26:23;;;;;;;26.83;16.55;;;;;;;-0.64;60.09;94778.44;5025808;28;20246;-73
2022/01/28 05:28:48;;;;;;;28.17;18.27;;;;;;;-0.82;60.95;94779.88;5016892;28;20575;-74
2022/01/28 05:31:16;;;;;;;29.50;16.33;;;;;;;-0.78;61.00;94791.53;5025236;28;20184;-73
2022/01/28 05:33:41;;;;;;;29.80;18.00;;;;;;;-0.62;60.09;94786.84;5026654;28;20207;-74
2022/01/28 05:36:07;;;;;;;24.80;18.33;;;;;;;-0.40;59.72;94800.53;5027770;28;20188;-74
2022/01/28 05:38:32;;;;;;;27.63;19.73;;;;;;;-1.00;61.17;94789.88;5023698;28;20192;-74
2022/01/28 05:40:57;;;;;;;34.03;21.37;;;;;;;-0.77;60.92;94790.63;5025220;28;20187;-73
2022/01/28 05:43:23;;;;;;;32.83;21.00;;;;;;;-0.23;59.97;94797.44;5028080;28;20219;-74
2022/01/28 05:45:48;;;;;;;27.57;20.83;;;;;;;-0.33;60.30;94801.66;5025535;28;20270;-74
2022/01/28 05:48:16;;;;;;;34.50;21.70;;;;;;;-0.34;59.90;94810.34;5012062;28;20192;-74
2022/01/28 05:50:41;;;;;;;30.33;21.27;;;;;;;0.10;58.54;94803.31;5025127;28;20277;-73
2022/01/28 05:53:07;;;;;;;20.67;14.57;;;;;;;-0.07;58.25;94803.91;5023705;28;20180;-73
2022/01/28 05:55:34;;;;;;;18.53;11.37;;;;;;;-0.43;59.86;94790.50;5022912;28;20294;-73
2022/01/28 05:58:00;;;;;;;36.80;18.75;;;;;;;-0.37;59.67;94800.28;5025335;28;20287;-74
2022/01/28 06:00:25;;;;;;;31.90;18.87;;;;;;;-0.26;59.91;94792.53;5025533;28;20247;-74
2022/01/28 06:02:51;;;;;;;31.10;18.80;;;;;;;-0.16;59.50;94797.72;5026763;28;20234;-74
2022/01/28 06:05:17;;;;;;;23.30;12.77;;;;;;;-0.06;59.08;94780.63;5027159;28;20258;-74
2022/01/28 06:07:43;;;;;;;28.52;20.55;;;;;;;-0.41;60.43;94793.78;5027517;28;20199;-73
2022/01/28 06:10:10;;;;;;;32.87;20.83;;;;;;;-0.06;59.58;94790.06;5027341;28;20202;-73
2022/01/28 06:12:44;;;;;;;35.67;21.00;;;;;;;0.06;59.25;94796.81;5029043;28;20303;-74
2022/01/28 06:15:11;;;;;;;33.50;21.05;;;;;;;-0.31;59.57;94812.63;5026073;28;20204;-73
2022/01/28 06:17:37;;;;;;;33.60;20.02;;;;;;;0.07;59.06;94813.03;5034366;28;20619;-74
2022/01/28 06:20:04;;;;;;;37.67;22.70;;;;;;;0.05;59.26;94823.44;4998578;28;20258;-73
2022/01/28 06:22:30;;;;;;;43.28;22.42;;;;;;;0.11;59.31;94820.38;5027224;28;20175;-74
2022/01/28 06:24:56;;;;;;;31.97;21.17;;;;;;;-0.10;59.13;94829.84;5024714;28;20323;-74
2022/01/28 06:27:22;;;;;;;40.87;21.50;;;;;;;0.14;59.27;94833.00;5026847;28;20548;-73
2022/01/28 06:29:49;;;;;;;39.25;22.17;;;;;;;-0.02;59.40;94830.03;5030060;28;20259;-73
2022/01/28 06:32:14;;;;;;;44.25;24.38;;;;;;;0.34;58.50;94827.97;5024955;28;20200;-74
2022/01/28 06:34:40;;;;;;;57.73;33.57;;;;;;;0.17;59.06;94845.63;5012113;28;20698;-74
2022/01/28 06:37:05;;;;;;;46.97;29.17;;;;;;;0.51;58.51;94836.84;5029533;28;20255;-74
2022/01/28 06:39:32;;;;;;;52.07;27.67;;;;;;;0.62;57.23;94830.81;5011788;28;20202;-74
2022/01/28 06:41:59;;;;;;;46.10;25.73;;;;;;;0.58;58.02;94832.81;5026315;28;20180;-74
2022/01/28 06:44:25;;;;;;;43.72;26.33;;;;;;;0.41;58.59;94834.22;5026565;28;20188;-74
2022/01/28 06:46:51;;;;;;;36.35;23.70;;;;;;;1.14;55.73;94818.66;5027068;28;20184;-74
2022/01/28 06:49:17;;;;;;;44.23;27.10;;;;;;;0.75;57.35;94818.53;5028908;28;20199;-73
2022/01/28 06:51:42;;;;;;;39.43;26.80;;;;;;;0.88;57.39;94816.53;5032161;28;20443;-73
2022/01/28 06:54:08;;;;;;;45.77;26.97;;;;;;;1.06;56.99;94810.75;5026050;28;20521;-74
2022/01/28 06:56:33;;;;;;;61.03;35.10;;;;;;;1.02;56.40;94830.00;5028768;28;20210;-73
2022/01/28 06:58:59;;;;;;;41.33;26.13;;;;;;;1.17;56.83;94831.28;5010704;28;20198;-74
2022/01/28 07:01:25;;;;;;;36.80;23.58;;;;;;;1.26;56.22;94835.63;5030169;28;20634;-74
2022/01/28 07:03:50;;;;;;;35.63;21.17;;;;;;;1.39;56.23;94839.75;5026261;28;20235;-73
2022/01/28 07:06:16;;;;;;;46.13;23.03;;;;;;;1.41;56.32;94830.13;5031548;28;20196;-74
2022/01/28 07:08:41;;;;;;;47.00;24.70;;;;;;;1.56;56.13;94839.09;5029430;28;20238;-74
2022/01/28 07:11:07;;;;;;;49.10;24.93;;;;;;;1.73;55.76;94845.34;5026992;28;20282;-74
2022/01/28 07:13:32;;;;;;;36.80;23.20;;;;;;;1.69;54.54;94844.78;5017928;28;20207;-73
2022/01/28 07:15:58;;;;;;;35.97;24.30;;;;;;;1.56;55.70;94851.97;5024832;28;20215;-73
2022/01/28 07:18:24;;;;;;;36.13;23.35;;;;;;;1.95;54.86;94849.41;5025976;28;20195;-73
2022/01/28 07:20:49;;;;;;;36.77;21.10;;;;;;;1.93;54.88;94853.88;5025818;28;20188;-73
2022/01/28 07:23:15;;;;;;;32.37;22.33;;;;;;;2.04;53.99;94852.94;5020570;28;20193;-74
2022/01/28 07:25:40;;;;;;;48.80;24.67;;;;;;;2.02;54.79;94850.50;5009435;28;20196;-74
2022/01/28 07:28:06;;;;;;;42.50;24.37;;;;;;;2.20;54.16;94847.22;5029255;28;20195;-74
2022/01/28 07:30:31;;;;;;;40.50;23.90;;;;;;;2.31;54.21;94852.22;5014810;28;20199;-74
2022/01/28 07:32:59;;;;;;;28.53;18.00;;;;;;;2.53;53.75;94846.75;5008857;28;20188;-74
2022/01/28 07:35:25;;;;;;;27.35;14.50;;;;;;;2.70;51.95;94849.56;5027851;28;20211;-73
2022/01/28 07:37:50;;;;;;;29.73;16.57;;;;;;;2.66;52.40;94858.56;5025782;28;20259;-73
2022/01/28 07:40:16;;;;;;;28.47;14.40;;;;;;;2.55;52.36;94851.78;5026082;28;20242;-73
2022/01/28 07:42:42;;;;;;;24.40;14.23;;;;;;;2.58;53.12;94876.50;5022943;28;20198;-73
2022/01/28 07:45:10;;;;;;;23.13;13.93;;;;;;;2.51;53.05;94871.91;5024331;28;20208;-74
2022/01/28 07:47:36;;;;;;;16.95;10.30;;;;;;;2.89;52.77;94861.59;5026677;28;20196;-75
2022/01/28 07:50:03;;;;;;;22.27;13.60;;;;;;;2.99;51.70;94870.13;5028270;28;20246;-74
2022/01/28 07:52:29;;;;;;;23.95;13.70;;;;;;;2.87;52.17;94874.66;5008131;28;20435;-73
2022/01/28 07:54:54;;;;;;;20.80;14.13;;;;;;;3.36;51.48;94876.22;5022872;28;20239;-74
2022/01/28 07:57:19;;;;;;;18.03;11.80;;;;;;;3.29;50.24;94883.75;5024853;28;20275;-73
2022/01/28 07:59:45;;;;;;;29.40;16.60;;;;;;;3.38;51.20;94889.81;5025557;28;20250;-73
2022/01/28 08:02:11;;;;;;;26.60;14.97;;;;;;;3.46;51.07;94887.34;5023572;28;20288;-74
2022/01/28 08:04:38;;;;;;;20.67;13.30;;;;;;;3.67;49.71;94879.31;5026829;28;20185;-74
2022/01/28 08:07:04;;;;;;;24.67;14.80;;;;;;;3.95;49.90;94882.69;5026547;28;20223;-74
2022/01/28 08:09:29;;;;;;;30.60;15.43;;;;;;;3.93;50.51;94876.84;5025877;28;20411;-74
2022/01/28 08:11:55;;;;;;;26.77;16.60;;;;;;;4.04;49.97;94881.81;5009649;28;20427;-74
2022/01/28 08:14:20;;;;;;;10.93;7.60;;;;;;;3.46;49.46;94877.81;5022203;28;20560;-73
2022/01/28 08:16:46;;;;;;;23.67;13.13;;;;;;;3.27;50.95;94862.41;5025046;28;20197;-73
2022/01/28 08:19:11;;;;;;;18.03;11.50;;;;;;;3.76;49.24;94856.94;5002075;28;20230;-73
2022/01/28 08:21:37;;;;;;;27.20;16.60;;;;;;;3.92;49.25;94839.75;5009509;28;20187;-73
2022/01/28 08:24:03;;;;;;;30.27;16.50;;;;;;;3.90;49.99;94843.47;5009540;28;20183;-74
2022/01/28 08:26:28;;;;;;;24.50;15.67;;;;;;;3.88;50.44;94837.63;5024091;28;20289;-75
2022/01/28 08:28:54;;;;;;;25.67;16.47;;;;;;;4.05;50.26;94828.22;5025265;28;20521;-74
2022/01/28 08:31:20;;;;;;;20.60;13.70;;;;;;;3.52;50.42;94819.50;5023994;28;20210;-74
2022/01/28 08:33:46;;;;;;;23.80;17.10;;;;;;;3.77;50.31;94824.91;5001992;28;20218;-74
2022/01/28 08:36:11;;;;;;;28.70;15.87;;;;;;;4.43;48.94;94828.84;5024682;28;20184;-74
2022/01/28 08:38:44;;;;;;;24.60;17.30;;;;;;;4.80;48.58;94832.94;5025197;28;20445;-74
2022/01/28 08:41:12;;;;;;;34.33;17.43;;;;;;;5.19;47.57;94830.69;5007006;28;20244;-73
2022/01/28 08:43:39;;;;;;;33.92;19.40;;;;;;;5.30;47.50;94836.56;5007466;28;20444;-74
2022/01/28 08:46:05;;;;;;;29.90;19.47;;;;;;;4.83;47.33;94837.81;5024539;28;20188;-73
2022/01/28 08:48:30;;;;;;;28.03;18.43;;;;;;;5.29;46.77;94846.13;5019024;28;20427;-75
2022/01/28 08:50:57;;;;;;;42.10;20.63;;;;;;;5.31;47.17;94844.19;5024729;28;20191;-74
2022/01/28 08:53:23;;;;;;;40.77;18.40;;;;;;;5.59;46.85;94856.94;5024875;28;20203;-74
2022/01/28 08:55:49;;;;;;;35.67;19.13;;;;;;;5.08;47.64;94854.31;5024352;28;20455;-74
2022/01/28 08:58:15;;;;;;;28.73;17.83;;;;;;;5.79;46.04;94857.47;5020627;28;20310;-74
2022/01/28 09:00:45;;;;;;;25.43;18.50;;;;;;;5.48;46.88;94863.22;5006883;28;20566;-75
2022/01/28 09:03:11;;;;;;;25.43;17.60;;;;;;;5.71;46.16;94860.03;5006632;28;20431;-74
2022/01/28 09:05:37;;;;;;;28.67;19.03;;;;;;;5.50;46.18;94861.28;5021613;28;20434;-74
2022/01/28 09:08:07;;;;;;;29.43;19.10;;;;;;;6.18;45.51;94862.09;5024657;28;20446;-75
2022/01/28 09:10:32;;;;;;;27.10;17.50;;;;;;;6.34;44.29;94854.31;5020626;28;20184;-75
2022/01/28 09:15:30;;;;;;;25.57;19.03;;;;;;;7.65;41.59;94854.94;5024639;28;20312;-75
2022/01/28 09:17:57;;;;;;;32.97;19.63;;;;;;;7.91;43.04;94850.25;5029319;28;20446;-74
2022/01/28 09:20:23;;;;;;;25.70;19.20;;;;;;;8.17;40.84;94838.66;5025294;28;20449;-74
2022/01/28 09:22:48;;;;;;;32.20;19.70;;;;;;;7.93;41.47;94843.06;5024802;28;20953;-74
2022/01/28 09:25:15;;;;;;;28.10;20.60;;;;;;;8.32;42.19;94849.94;5029988;28;20270;-74
2022/01/28 09:27:40;;;;;;;36.70;21.70;;;;;;;8.84;39.68;94850.16;5024064;28;20235;-74
2022/01/28 09:30:07;;;;;;;25.50;20.57;;;;;;;9.21;39.80;94851.09;5024691;28;20427;-74
2022/01/28 09:32:32;;;;;;;33.37;22.50;;;;;;;8.91;40.78;94851.06;5024397;28;20254;-75
2022/01/28 09:34:57;;;;;;;49.27;32.03;;;;;;;7.86;41.62;94847.31;5010235;28;20946;-74
2022/01/28 09:37:23;;;;;;;52.87;33.77;;;;;;;8.08;41.23;94860.53;5009583;28;20195;-75
2022/01/28 09:39:49;;;;;;;61.43;46.00;;;;;;;7.11;43.01;94868.66;5028301;28;20251;-75
2022/01/28 09:42:17;;;;;;;67.67;48.30;;;;;;;6.69;43.63;94859.31;5028931;28;20251;-74
2022/01/28 09:44:43;;;;;;;71.83;49.10;;;;;;;6.56;43.60;94863.22;5031952;28;20192;-74
2022/01/28 09:47:11;;;;;;;77.37;45.37;;;;;;;6.99;43.05;94863.00;5009822;28;20439;-74
2022/01/28 09:49:40;;;;;;;63.93;44.20;;;;;;;7.06;43.02;94855.31;5028152;28;20434;-74
2022/01/28 09:52:08;;;;;;;72.70;50.63;;;;;;;7.23;42.78;94856.91;5030665;28;20444;-74
2022/01/28 09:54:34;;;;;;;76.00;50.60;;;;;;;7.43;42.38;94847.69;5035517;28;20492;-74
2022/01/28 09:57:01;;;;;;;93.83;55.33;;;;;;;7.66;41.79;94848.75;5032623;28;20495;-74
2022/01/28 09:59:26;;;;;;;71.27;47.17;;;;;;;8.09;42.08;94841.31;5038769;28;20434;-74
2022/01/28 10:01:54;;;;;;;76.73;50.57;;;;;;;8.35;40.96;94851.41;5036788;28;20488;-74
2022/01/28 10:04:20;;;;;;;71.47;49.60;;;;;;;8.25;40.40;94843.78;5015830;28;20216;-74
2022/01/28 10:06:47;;;;;;;70.60;52.07;;;;;;;8.46;40.13;94837.97;5027778;28;20868;-74
2022/01/28 10:09:15;;;;;;;76.50;48.83;;;;;;;6.87;43.70;94851.31;5009946;28;20504;-74
2022/01/28 10:11:44;;;;;;;77.90;49.77;;;;;;;6.75;44.46;94858.66;5035544;28;20446;-74
2022/01/28 10:14:30;;;;;;;82.00;49.87;;;;;;;7.84;42.27;94853.72;5028013;28;20489;-74
2022/01/28 10:17:00;;;;;;;77.47;51.20;;;;;;;7.46;42.98;94854.38;5027287;28;20447;-73
2022/01/28 10:19:36;;;;;;;82.73;51.03;;;;;;;7.46;42.27;94864.78;5028489;28;20504;-74
2022/01/28 10:22:01;;;;;;;76.67;49.43;;;;;;;7.62;42.57;94862.09;5048004;28;21079;-74
2022/01/28 10:24:28;;;;;;;75.30;47.50;;;;;;;7.48;43.07;94859.41;5029804;28;20461;-73
2022/01/28 10:27:06;;;;;;;77.53;51.73;;;;;;;7.44;43.20;94864.16;5046561;28;20239;-74
2022/01/28 10:29:35;;;;;;;74.30;47.93;;;;;;;7.79;42.61;94867.22;5040503;28;20441;-73
2022/01/28 10:32:04;;;;;;;76.23;49.80;;;;;;;7.01;43.22;94871.44;5021352;28;20446;-73
2022/01/28 10:34:49;;;;;;;73.53;47.73;;;;;;;7.10;43.91;94862.63;5027355;28;20455;-73
2022/01/28 10:37:28;;;;;;;71.97;49.10;;;;;;;6.59;45.15;94870.69;5026327;28;20526;-73
2022/01/28 10:39:57;;;;;;;76.50;49.10;;;;;;;7.03;44.12;94861.69;5028978;28;20411;-74
2022/01/28 10:42:25;;;;;;;70.90;48.90;;;;;;;6.91;44.23;94874.22;5013044;28;20494;-73
2022/01/28 10:44:58;;;;;;;70.97;48.37;;;;;;;7.17;44.00;94866.19;5018286;28;20437;-72
2022/01/28 10:47:31;;;;;;;68.23;46.73;;;;;;;7.46;42.92;94872.59;5029752;28;20442;-72
2022/01/28 10:49:56;;;;;;;68.17;44.50;;;;;;;7.03;44.02;94874.69;5029983;28;20418;-72
2022/01/28 10:52:33;;;;;;;60.13;39.13;;;;;;;7.88;41.87;94870.59;5046660;28;20418;-72
2022/01/28 10:55:00;;;;;;;59.00;38.97;;;;;;;8.09;41.38;94876.00;5021975;28;20222;-72
2022/01/28 10:57:29;;;;;;;67.10;42.97;;;;;;;7.67;42.68;94874.63;5007127;28;20420;-72
2022/01/28 10:59:55;;;;;;;74.20;41.50;;;;;;;7.71;42.48;94859.47;4989916;28;20428;-71
2022/01/28 11:02:25;;;;;;;58.13;41.30;;;;;;;7.87;42.30;94864.56;5006717;28;20424;-72
2022/01/28 11:04:52;;;;;;;57.50;39.67;;;;;;;7.83;43.25;94858.09;5016317;28;20821;-72
2022/01/28 11:07:18;;;;;;;57.03;40.13;;;;;;;7.65;42.56;94862.75;5026641;28;20462;-73
2022/01/28 11:09:44;;;;;;;51.50;40.03;;;;;;;7.30;42.91;94862.25;5026341;28;20485;-72
2022/01/28 11:12:10;;;;;;;58.43;42.00;;;;;;;7.73;42.64;94847.09;5026028;28;20176;-73
2022/01/28 11:14:37;;;;;;;54.47;39.20;;;;;;;8.06;42.00;94849.47;5035336;28;20530;-73
2022/01/28 11:17:02;;;;;;;59.77;38.60;;;;;;;7.78;43.35;94839.56;5046442;28;20493;-75
2022/01/28 11:19:33;;;;;;;43.87;33.00;;;;;;;7.88;42.60;94841.94;5046560;28;20430;-72
2022/01/28 11:22:24;;;;;;;28.10;19.60;;;;;;;7.65;43.33;94836.72;5043518;28;20269;-72
2022/01/28 11:25:30;;;;;;;29.57;19.10;;;;;;;7.65;42.90;94831.50;5044214;28;20429;-72
2022/01/28 11:27:56;;;;;;;35.97;19.93;;;;;;;7.81;43.94;94827.00;5028647;28;20453;-72
2022/01/28 11:30:27;;;;;;;23.10;17.10;;;;;;;7.38;43.94;94837.00;5046142;28;20412;-72
2022/01/28 11:33:07;;;;;;;15.10;10.50;;;;;;;7.63;43.68;94837.69;5039723;28;20191;-72
2022/01/28 11:35:39;;;;;;;14.93;8.90;;;;;;;7.63;44.41;94831.69;5031405;28;20562;-72
2022/01/28 11:38:23;;;;;;;24.20;9.27;;;;;;;8.05;43.51;94833.03;5026241;28;20439;-72
2022/01/28 11:40:56;;;;;;;10.43;6.47;;;;;;;8.30;43.72;94833.66;5019844;28;20432;-72
2022/01/28 11:43:25;;;;;;;12.47;4.10;;;;;;;7.76;43.77;94825.91;4989449;28;20428;-72
2022/01/28 11:46:11;;;;;;;9.43;5.80;;;;;;;8.48;42.56;94828.19;5006759;28;20443;-72
2022/01/28 11:48:51;;;;;;;7.20;5.70;;;;;;;8.83;41.84;94828.50;5006904;28;20416;-72
2022/01/28 11:51:17;;;;;;;16.13;8.23;;;;;;;8.17;44.24;94828.22;5035843;28;20901;-72
2022/01/28 11:54:07;;;;;;;9.63;5.67;;;;;;;8.05;44.95;94819.19;5028105;28;20472;-73
2022/01/28 11:56:36;;;;;;;17.33;7.70;;;;;;;8.47;43.70;94815.31;5007942;28;20768;-73
2022/01/28 11:59:09;;;;;;;8.70;4.77;;;;;;;8.28;45.59;94813.97;5039462;28;20474;-72
2022/01/28 12:01:40;;;;;;;9.83;3.60;;;;;;;8.44;45.60;94805.22;5043075;28;20424;-74
2022/01/28 12:04:24;;;;;;;17.53;3.70;;;;;;;8.24;47.51;94810.91;5008206;28;20431;-73
2022/01/28 12:06:53;;;;;;;9.90;5.90;;;;;;;8.85;46.19;94800.41;5026015;28;20415;-74
2022/01/28 12:09:19;;;;;;;6.33;4.47;;;;;;;8.34;46.86;94806.25;5030905;28;20434;-73
2022/01/28 12:11:45;;;;;;;10.40;5.93;;;;;;;8.27;48.35;94800.13;5045734;28;20943;-73
2022/01/28 12:14:13;;;;;;;24.47;3.60;;;;;;;8.38;47.28;94797.09;5045667;28;20306;-73
2022/01/28 12:16:42;;;;;;;10.10;5.10;;;;;;;9.27;46.74;94804.16;5042684;28;20422;-73
2022/01/28 12:19:19;;;;;;;3.93;3.57;;;;;;;8.61;47.16;94801.47;5024751;28;20481;-73
2022/01/28 12:22:04;;;;;;;21.60;5.73;;;;;;;8.33;48.77;94799.41;5032937;28;20442;-74
2022/01/28 12:24:32;;;;;;;10.80;6.10;;;;;;;8.76;47.66;94780.59;5025833;28;20510;-73
2022/01/28 12:27:05;;;;;;;10.87;4.07;;;;;;;8.59;46.93;94791.22;5013653;28;20469;-73
2022/01/28 12:29:36;;;;;;;10.13;3.70;;;;;;;8.64;48.05;94798.50;5045557;28;20414;-74
2022/01/28 12:32:03;;;;;;;7.80;3.87;;;;;;;9.08;45.94;94789.88;5045409;28;20421;-74
2022/01/28 12:34:29;;;;;;;5.37;4.60;;;;;;;8.92;46.44;94792.69;5026929;28;20450;-74
2022/01/28 12:36:57;;;;;;;7.80;5.17;;;;;;;9.15;45.26;94801.22;5033068;28;20434;-74
2022/01/28 12:39:38;;;;;;;8.73;5.90;;;;;;;9.32;44.84;94791.38;5023962;28;20247;-74
2022/01/28 12:42:12;;;;;;;11.77;5.30;;;;;;;9.01;45.07;94802.06;5025771;28;20465;-74
2022/01/28 12:44:38;;;;;;;8.73;4.63;;;;;;;9.09;45.37;94804.56;5021980;28;20432;-74
2022/01/28 12:47:10;;;;;;;9.37;4.27;;;;;;;9.23;44.45;94802.13;5045225;28;20422;-74
2022/01/28 12:49:38;;;;;;;6.53;4.97;;;;;;;9.06;44.46;94799.69;5045123;28;20414;-74
2022/01/28 12:52:06;;;;;;;7.73;4.33;;;;;;;8.63;44.84;94789.06;5044940;28;20488;-74
2022/01/28 12:54:50;;;;;;;6.07;4.40;;;;;;;8.73;45.64;94805.28;5014270;28;20467;-74
2022/01/28 12:57:19;;;;;;;16.30;3.90;;;;;;;8.18;46.93;94804.59;5005724;28;20427;-73
2022/01/28 12:59:47;;;;;;;5.37;3.30;;;;;;;8.25;46.31;94812.50;5020046;28;20442;-74
2022/01/28 13:02:14;;;;;;;9.43;4.30;;;;;;;8.80;45.81;94805.34;5006447;28;20862;-74
2022/01/28 13:10:27;;;;;;;6.97;3.00;;;;;;;8.32;46.43;94805.59;5024863;28;20422;-74